sensor_id;sensor_type;location;lat;lon;timestamp;P1;P2;P0
24012;PMS7003;12220;50.194;18.948;2024-02-21T00:01:57;9;9;6
24012;PMS7003;12220;50.194;18.948;2024-02-21T00:03:58;5;4;3
24012;PMS7003;12220;50.194;18.948;2024-02-21T00:06:09;8;6;4
24012;PMS7003;12220;50.194;18.948;2024-02-21T00:08:10;6;5;4
24012;PMS7003;12220;50.194;18.948;2024-02-21T00:10:12;8;7;5
24012;PMS7003;12220;50.194;18.948;2024-02-21T00:12:13;6;6;4
24012;PMS7003;12220;50.194;18.948;2024-02-21T00:14:24;9;7;4
24012;PMS7003;12220;50.194;18.948;2024-02-21T00:16:25;9;9;7
24012;PMS7003;12220;50.194;18.948;2024-02-21T00:18:27;11;11;8
24012;PMS7003;12220;50.194;18.948;2024-02-21T00:20:28;10;9;6
24012;PMS7003;12220;50.194;18.948;2024-02-21T00:22:39;14;13;9
24012;PMS7003;12220;50.194;18.948;2024-02-21T00:24:40;10;9;5
24012;PMS7003;12220;50.194;18.948;2024-02-21T00:26:42;13;12;9
24012;PMS7003;12220;50.194;18.948;2024-02-21T00:28:46;11;10;8
24012;PMS7003;12220;50.194;18.948;2024-02-21T00:30:54;17;13;10
24012;PMS7003;12220;50.194;18.948;2024-02-21T00:32:55;15;14;11
24012;PMS7003;12220;50.194;18.948;2024-02-21T00:34:56;14;11;8
24012;PMS7003;12220;50.194;18.948;2024-02-21T00:36:58;12;11;8
24012;PMS7003;12220;50.194;18.948;2024-02-21T00:39:09;9;9;6
24012;PMS7003;12220;50.194;18.948;2024-02-21T00:41:10;15;12;8
24012;PMS7003;12220;50.194;18.948;2024-02-21T00:43:11;14;11;9
24012;PMS7003;12220;50.194;18.948;2024-02-21T00:45:13;11;9;6
24012;PMS7003;12220;50.194;18.948;2024-02-21T00:47:24;13;11;6
24012;PMS7003;12220;50.194;18.948;2024-02-21T00:49:25;12;12;9
24012;PMS7003;12220;50.194;18.948;2024-02-21T00:51:27;14;12;8
24012;PMS7003;12220;50.194;18.948;2024-02-21T00:53:28;11;8;6
24012;PMS7003;12220;50.194;18.948;2024-02-21T00:55:39;13;13;8
24012;PMS7003;12220;50.194;18.948;2024-02-21T00:57:41;18;12;9
24012;PMS7003;12220;50.194;18.948;2024-02-21T00:59:42;15;15;9
24012;PMS7003;12220;50.194;18.948;2024-02-21T01:01:43;15;12;8
24012;PMS7003;12220;50.194;18.948;2024-02-21T01:03:54;9;7;5
24012;PMS7003;12220;50.194;18.948;2024-02-21T01:05:55;14;11;8
24012;PMS7003;12220;50.194;18.948;2024-02-21T01:07:57;13;12;8
24012;PMS7003;12220;50.194;18.948;2024-02-21T01:09:58;12;11;8
24012;PMS7003;12220;50.194;18.948;2024-02-21T01:12:09;11;10;7
24012;PMS7003;12220;50.194;18.948;2024-02-21T01:14:10;14;12;7
24012;PMS7003;12220;50.194;18.948;2024-02-21T01:16:12;11;9;7
24012;PMS7003;12220;50.194;18.948;2024-02-21T01:18:13;15;13;10
24012;PMS7003;12220;50.194;18.948;2024-02-21T01:20:24;11;10;9
24012;PMS7003;12220;50.194;18.948;2024-02-21T01:22:25;11;11;8
24012;PMS7003;12220;50.194;18.948;2024-02-21T01:24:26;20;14;8
24012;PMS7003;12220;50.194;18.948;2024-02-21T01:26:33;13;11;7
24012;PMS7003;12220;50.194;18.948;2024-02-21T01:28:39;12;8;6
24012;PMS7003;12220;50.194;18.948;2024-02-21T01:30:41;13;12;7
24012;PMS7003;12220;50.194;18.948;2024-02-21T01:32:43;12;10;8
24012;PMS7003;12220;50.194;18.948;2024-02-21T01:34:44;13;11;8
24012;PMS7003;12220;50.194;18.948;2024-02-21T01:36:54;13;13;8
24012;PMS7003;12220;50.194;18.948;2024-02-21T01:38:55;18;10;7
24012;PMS7003;12220;50.194;18.948;2024-02-21T01:40:56;12;10;8
24012;PMS7003;12220;50.194;18.948;2024-02-21T01:42:58;10;9;6
24012;PMS7003;12220;50.194;18.948;2024-02-21T01:45:10;11;9;8
24012;PMS7003;12220;50.194;18.948;2024-02-21T01:47:11;12;11;7
24012;PMS7003;12220;50.194;18.948;2024-02-21T01:49:14;12;11;9
24012;PMS7003;12220;50.194;18.948;2024-02-21T01:51:16;13;9;7
24012;PMS7003;12220;50.194;18.948;2024-02-21T01:55:34;13;13;9
24012;PMS7003;12220;50.194;18.948;2024-02-21T01:57:35;10;10;7
24012;PMS7003;12220;50.194;18.948;2024-02-21T01:59:37;7;2;1
24012;PMS7003;12220;50.194;18.948;2024-02-21T02:01:40;9;8;6
24012;PMS7003;12220;50.194;18.948;2024-02-21T02:03:42;8;8;6
24012;PMS7003;12220;50.194;18.948;2024-02-21T02:05:47;8;8;7
24012;PMS7003;12220;50.194;18.948;2024-02-21T02:07:50;6;5;4
24012;PMS7003;12220;50.194;18.948;2024-02-21T02:09:55;9;8;5
24012;PMS7003;12220;50.194;18.948;2024-02-21T02:11:56;11;9;7
24012;PMS7003;12220;50.194;18.948;2024-02-21T02:13:59;6;6;5
24012;PMS7003;12220;50.194;18.948;2024-02-21T02:16:00;6;6;5
24012;PMS7003;12220;50.194;18.948;2024-02-21T02:18:10;5;5;3
24012;PMS7003;12220;50.194;18.948;2024-02-21T02:20:12;4;4;3
24012;PMS7003;12220;50.194;18.948;2024-02-21T02:22:15;9;9;6
24012;PMS7003;12220;50.194;18.948;2024-02-21T02:24:23;6;5;4
24012;PMS7003;12220;50.194;18.948;2024-02-21T02:26:28;8;6;5
24012;PMS7003;12220;50.194;18.948;2024-02-21T02:28:29;7;5;4
24012;PMS7003;12220;50.194;18.948;2024-02-21T02:30:34;12;5;4
24012;PMS7003;12220;50.194;18.948;2024-02-21T02:32:39;9;7;4
24012;PMS7003;12220;50.194;18.948;2024-02-21T02:34:40;7;6;4
24012;PMS7003;12220;50.194;18.948;2024-02-21T02:36:41;9;5;5
24012;PMS7003;12220;50.194;18.948;2024-02-21T02:38:43;6;5;4
24012;PMS7003;12220;50.194;18.948;2024-02-21T02:40:44;10;6;3
24012;PMS7003;12220;50.194;18.948;2024-02-21T02:42:55;3;3;2
24012;PMS7003;12220;50.194;18.948;2024-02-21T02:44:56;5;3;3
24012;PMS7003;12220;50.194;18.948;2024-02-21T02:46:58;7;6;4
24012;PMS7003;12220;50.194;18.948;2024-02-21T02:48:59;4;4;3
24012;PMS7003;12220;50.194;18.948;2024-02-21T02:51:10;6;5;4
24012;PMS7003;12220;50.194;18.948;2024-02-21T02:53:11;8;5;4
24012;PMS7003;12220;50.194;18.948;2024-02-21T02:55:13;7;5;4
24012;PMS7003;12220;50.194;18.948;2024-02-21T02:57:14;12;8;6
24012;PMS7003;12220;50.194;18.948;2024-02-21T02:59:25;13;12;7
24012;PMS7003;12220;50.194;18.948;2024-02-21T03:01:26;21;12;6
24012;PMS7003;12220;50.194;18.948;2024-02-21T03:03:28;17;15;10
24012;PMS7003;12220;50.194;18.948;2024-02-21T03:05:29;18;16;8
24012;PMS7003;12220;50.194;18.948;2024-02-21T03:07:40;12;11;8
24012;PMS7003;12220;50.194;18.948;2024-02-21T03:09:42;13;13;10
24012;PMS7003;12220;50.194;18.948;2024-02-21T03:11:46;16;12;9
24012;PMS7003;12220;50.194;18.948;2024-02-21T03:13:48;10;10;8
24012;PMS7003;12220;50.194;18.948;2024-02-21T03:15:55;21;13;9
24012;PMS7003;12220;50.194;18.948;2024-02-21T03:17:56;14;11;8
24012;PMS7003;12220;50.194;18.948;2024-02-21T03:19:58;13;5;4
24012;PMS7003;12220;50.194;18.948;2024-02-21T03:22:00;9;8;6
24012;PMS7003;12220;50.194;18.948;2024-02-21T03:24:10;7;7;5
24012;PMS7003;12220;50.194;18.948;2024-02-21T03:26:11;6;5;3
24012;PMS7003;12220;50.194;18.948;2024-02-21T03:28:13;9;8;4
24012;PMS7003;12220;50.194;18.948;2024-02-21T03:30:14;10;7;5
24012;PMS7003;12220;50.194;18.948;2024-02-21T03:32:25;13;12;8
24012;PMS7003;12220;50.194;18.948;2024-02-21T03:34:28;8;7;6
24012;PMS7003;12220;50.194;18.948;2024-02-21T03:36:30;9;7;5
24012;PMS7003;12220;50.194;18.948;2024-02-21T03:38:31;10;10;8
24012;PMS7003;12220;50.194;18.948;2024-02-21T03:40:40;13;12;8
24012;PMS7003;12220;50.194;18.948;2024-02-21T03:42:41;10;10;6
24012;PMS7003;12220;50.194;18.948;2024-02-21T03:44:43;15;11;7
24012;PMS7003;12220;50.194;18.948;2024-02-21T03:46:44;14;11;8
24012;PMS7003;12220;50.194;18.948;2024-02-21T03:48:55;13;9;7
24012;PMS7003;12220;50.194;18.948;2024-02-21T03:50:56;14;11;8
24012;PMS7003;12220;50.194;18.948;2024-02-21T03:52:58;14;14;10
24012;PMS7003;12220;50.194;18.948;2024-02-21T03:54:59;15;10;8
24012;PMS7003;12220;50.194;18.948;2024-02-21T03:57:10;11;11;8
24012;PMS7003;12220;50.194;18.948;2024-02-21T03:59:11;13;12;10
24012;PMS7003;12220;50.194;18.948;2024-02-21T04:01:14;15;15;10
24012;PMS7003;12220;50.194;18.948;2024-02-21T04:03:16;16;14;9
24012;PMS7003;12220;50.194;18.948;2024-02-21T04:05:25;13;13;11
24012;PMS7003;12220;50.194;18.948;2024-02-21T04:07:26;14;13;10
24012;PMS7003;12220;50.194;18.948;2024-02-21T04:09:28;19;19;11
24012;PMS7003;12220;50.194;18.948;2024-02-21T04:11:29;19;13;8
24012;PMS7003;12220;50.194;18.948;2024-02-21T04:13:40;23;20;13
24012;PMS7003;12220;50.194;18.948;2024-02-21T04:15:41;20;17;13
24012;PMS7003;12220;50.194;18.948;2024-02-21T04:17:43;24;21;10
24012;PMS7003;12220;50.194;18.948;2024-02-21T04:19:45;21;21;10
24012;PMS7003;12220;50.194;18.948;2024-02-21T04:21:55;23;18;12
24012;PMS7003;12220;50.194;18.948;2024-02-21T04:23:56;17;16;12
24012;PMS7003;12220;50.194;18.948;2024-02-21T04:25:58;19;15;11
24012;PMS7003;12220;50.194;18.948;2024-02-21T04:27:59;19;19;13
24012;PMS7003;12220;50.194;18.948;2024-02-21T04:30:10;26;24;15
24012;PMS7003;12220;50.194;18.948;2024-02-21T04:32:12;33;23;15
24012;PMS7003;12220;50.194;18.948;2024-02-21T04:34:13;17;16;9
24012;PMS7003;12220;50.194;18.948;2024-02-21T04:36:14;16;16;9
24012;PMS7003;12220;50.194;18.948;2024-02-21T04:38:25;14;12;7
24012;PMS7003;12220;50.194;18.948;2024-02-21T04:40:27;25;19;14
24012;PMS7003;12220;50.194;18.948;2024-02-21T04:42:28;17;15;13
24012;PMS7003;12220;50.194;18.948;2024-02-21T04:44:30;14;14;9
24012;PMS7003;12220;50.194;18.948;2024-02-21T04:46:42;17;13;11
24012;PMS7003;12220;50.194;18.948;2024-02-21T04:48:44;16;15;9
24012;PMS7003;12220;50.194;18.948;2024-02-21T04:50:45;13;12;8
24012;PMS7003;12220;50.194;18.948;2024-02-21T04:52:46;14;12;5
24012;PMS7003;12220;50.194;18.948;2024-02-21T04:54:55;12;10;7
24012;PMS7003;12220;50.194;18.948;2024-02-21T04:56:56;8;8;5
24012;PMS7003;12220;50.194;18.948;2024-02-21T04:58:58;18;17;11
24012;PMS7003;12220;50.194;18.948;2024-02-21T05:00:59;19;18;12
24012;PMS7003;12220;50.194;18.948;2024-02-21T05:03:10;12;11;8
24012;PMS7003;12220;50.194;18.948;2024-02-21T05:05:12;17;12;8
24012;PMS7003;12220;50.194;18.948;2024-02-21T05:07:17;15;13;11
24012;PMS7003;12220;50.194;18.948;2024-02-21T05:09:20;15;14;8
24012;PMS7003;12220;50.194;18.948;2024-02-21T05:11:25;16;12;8
24012;PMS7003;12220;50.194;18.948;2024-02-21T05:13:26;14;14;10
24012;PMS7003;12220;50.194;18.948;2024-02-21T05:15:28;16;14;9
24012;PMS7003;12220;50.194;18.948;2024-02-21T05:17:29;17;17;10
24012;PMS7003;12220;50.194;18.948;2024-02-21T05:19:40;14;14;10
24012;PMS7003;12220;50.194;18.948;2024-02-21T05:21:41;19;13;9
24012;PMS7003;12220;50.194;18.948;2024-02-21T05:23:43;14;14;9
24012;PMS7003;12220;50.194;18.948;2024-02-21T05:25:47;15;15;9
24012;PMS7003;12220;50.194;18.948;2024-02-21T05:27:55;17;15;11
24012;PMS7003;12220;50.194;18.948;2024-02-21T05:30:04;16;13;9
24012;PMS7003;12220;50.194;18.948;2024-02-21T05:32:07;15;14;10
24012;PMS7003;12220;50.194;18.948;2024-02-21T05:34:09;19;15;11
24012;PMS7003;12220;50.194;18.948;2024-02-21T05:36:12;15;13;9
24012;PMS7003;12220;50.194;18.948;2024-02-21T05:38:14;16;13;10
24012;PMS7003;12220;50.194;18.948;2024-02-21T05:40:16;9;7;6
24012;PMS7003;12220;50.194;18.948;2024-02-21T05:42:17;9;8;5
24012;PMS7003;12220;50.194;18.948;2024-02-21T05:44:27;15;12;9
24012;PMS7003;12220;50.194;18.948;2024-02-21T05:46:28;12;9;6
24012;PMS7003;12220;50.194;18.948;2024-02-21T05:48:32;12;12;7
24012;PMS7003;12220;50.194;18.948;2024-02-21T05:50:34;11;11;7
24012;PMS7003;12220;50.194;18.948;2024-02-21T05:52:42;10;8;7
24012;PMS7003;12220;50.194;18.948;2024-02-21T05:54:43;14;12;9
24012;PMS7003;12220;50.194;18.948;2024-02-21T05:56:45;15;14;10
24012;PMS7003;12220;50.194;18.948;2024-02-21T05:58:47;17;12;10
24012;PMS7003;12220;50.194;18.948;2024-02-21T06:00:57;16;10;9
24012;PMS7003;12220;50.194;18.948;2024-02-21T06:02:58;17;15;10
24012;PMS7003;12220;50.194;18.948;2024-02-21T06:05:00;18;9;7
24012;PMS7003;12220;50.194;18.948;2024-02-21T06:07:02;14;12;11
24012;PMS7003;12220;50.194;18.948;2024-02-21T06:09:12;17;14;10
24012;PMS7003;12220;50.194;18.948;2024-02-21T06:11:13;23;15;9
24012;PMS7003;12220;50.194;18.948;2024-02-21T06:13:16;21;15;12
24012;PMS7003;12220;50.194;18.948;2024-02-21T06:15:17;28;25;14
24012;PMS7003;12220;50.194;18.948;2024-02-21T06:17:27;17;17;11
24012;PMS7003;12220;50.194;18.948;2024-02-21T06:19:28;16;15;11
24012;PMS7003;12220;50.194;18.948;2024-02-21T06:21:30;20;17;13
24012;PMS7003;12220;50.194;18.948;2024-02-21T06:23:31;21;21;14
24012;PMS7003;12220;50.194;18.948;2024-02-21T06:25:42;23;22;14
24012;PMS7003;12220;50.194;18.948;2024-02-21T06:27:44;20;18;13
24012;PMS7003;12220;50.194;18.948;2024-02-21T06:29:45;22;21;11
24012;PMS7003;12220;50.194;18.948;2024-02-21T06:31:46;24;23;16
24012;PMS7003;12220;50.194;18.948;2024-02-21T06:33:57;28;26;15
24012;PMS7003;12220;50.194;18.948;2024-02-21T06:35:58;27;22;13
24012;PMS7003;12220;50.194;18.948;2024-02-21T06:38:00;31;30;18
24012;PMS7003;12220;50.194;18.948;2024-02-21T06:40:01;28;26;17
24012;PMS7003;12220;50.194;18.948;2024-02-21T06:42:12;19;18;13
24012;PMS7003;12220;50.194;18.948;2024-02-21T06:44:13;18;17;11
24012;PMS7003;12220;50.194;18.948;2024-02-21T06:48:26;23;20;14
24012;PMS7003;12220;50.194;18.948;2024-02-21T06:50:27;16;16;10
24012;PMS7003;12220;50.194;18.948;2024-02-21T06:52:28;17;16;11
24012;PMS7003;12220;50.194;18.948;2024-02-21T06:54:31;18;14;9
24012;PMS7003;12220;50.194;18.948;2024-02-21T06:56:33;17;13;10
24012;PMS7003;12220;50.194;18.948;2024-02-21T06:58:42;13;13;8
24012;PMS7003;12220;50.194;18.948;2024-02-21T07:00:43;14;14;9
24012;PMS7003;12220;50.194;18.948;2024-02-21T07:02:45;21;17;13
24012;PMS7003;12220;50.194;18.948;2024-02-21T07:04:46;19;17;12
24012;PMS7003;12220;50.194;18.948;2024-02-21T07:06:57;18;16;12
24012;PMS7003;12220;50.194;18.948;2024-02-21T07:08:58;19;17;10
24012;PMS7003;12220;50.194;18.948;2024-02-21T07:11:00;18;18;12
24012;PMS7003;12220;50.194;18.948;2024-02-21T07:13:01;22;15;11
24012;PMS7003;12220;50.194;18.948;2024-02-21T07:15:12;13;11;8
24012;PMS7003;12220;50.194;18.948;2024-02-21T07:17:13;16;15;10
24012;PMS7003;12220;50.194;18.948;2024-02-21T07:19:15;18;15;10
24012;PMS7003;12220;50.194;18.948;2024-02-21T07:21:16;12;12;9
24012;PMS7003;12220;50.194;18.948;2024-02-21T07:23:27;16;14;8
24012;PMS7003;12220;50.194;18.948;2024-02-21T07:25:29;21;17;11
24012;PMS7003;12220;50.194;18.948;2024-02-21T07:27:30;15;13;9
24012;PMS7003;12220;50.194;18.948;2024-02-21T07:29:33;16;14;9
24012;PMS7003;12220;50.194;18.948;2024-02-21T07:31:42;17;17;11
24012;PMS7003;12220;50.194;18.948;2024-02-21T07:33:44;15;15;10
24012;PMS7003;12220;50.194;18.948;2024-02-21T07:35:46;18;17;12
24012;PMS7003;12220;50.194;18.948;2024-02-21T07:37:47;16;13;10
24012;PMS7003;12220;50.194;18.948;2024-02-21T07:39:57;16;15;12
24012;PMS7003;12220;50.194;18.948;2024-02-21T07:41:58;23;23;12
24012;PMS7003;12220;50.194;18.948;2024-02-21T07:44:01;19;18;14
24012;PMS7003;12220;50.194;18.948;2024-02-21T07:46:04;16;15;9
24012;PMS7003;12220;50.194;18.948;2024-02-21T07:48:12;23;21;13
24012;PMS7003;12220;50.194;18.948;2024-02-21T07:50:14;18;18;10
24012;PMS7003;12220;50.194;18.948;2024-02-21T07:52:15;21;19;12
24012;PMS7003;12220;50.194;18.948;2024-02-21T07:54:16;19;17;12
24012;PMS7003;12220;50.194;18.948;2024-02-21T07:56:27;20;18;12
24012;PMS7003;12220;50.194;18.948;2024-02-21T07:58:30;17;17;12
24012;PMS7003;12220;50.194;18.948;2024-02-21T08:00:31;16;16;9
24012;PMS7003;12220;50.194;18.948;2024-02-21T08:02:32;20;19;14
24012;PMS7003;12220;50.194;18.948;2024-02-21T08:04:42;26;25;15
24012;PMS7003;12220;50.194;18.948;2024-02-21T08:06:44;22;22;12
24012;PMS7003;12220;50.194;18.948;2024-02-21T08:08:45;23;20;11
24012;PMS7003;12220;50.194;18.948;2024-02-21T08:10:49;29;25;16
24012;PMS7003;12220;50.194;18.948;2024-02-21T08:12:57;21;21;16
24012;PMS7003;12220;50.194;18.948;2024-02-21T08:14:59;25;21;14
24012;PMS7003;12220;50.194;18.948;2024-02-21T08:17:00;15;12;9
24012;PMS7003;12220;50.194;18.948;2024-02-21T08:19:02;22;21;13
24012;PMS7003;12220;50.194;18.948;2024-02-21T08:21:12;16;16;9
24012;PMS7003;12220;50.194;18.948;2024-02-21T08:23:17;15;13;10
24012;PMS7003;12220;50.194;18.948;2024-02-21T08:25:19;24;24;14
24012;PMS7003;12220;50.194;18.948;2024-02-21T08:27:21;26;23;16
24012;PMS7003;12220;50.194;18.948;2024-02-21T08:29:27;18;16;14
24012;PMS7003;12220;50.194;18.948;2024-02-21T08:31:29;31;23;14
24012;PMS7003;12220;50.194;18.948;2024-02-21T08:33:32;23;21;15
24012;PMS7003;12220;50.194;18.948;2024-02-21T08:35:34;19;17;12
24012;PMS7003;12220;50.194;18.948;2024-02-21T08:37:42;17;17;13
24012;PMS7003;12220;50.194;18.948;2024-02-21T08:39:44;18;18;15
24012;PMS7003;12220;50.194;18.948;2024-02-21T08:41:45;24;20;15
24012;PMS7003;12220;50.194;18.948;2024-02-21T08:43:47;23;21;15
24012;PMS7003;12220;50.194;18.948;2024-02-21T08:45:57;18;18;12
24012;PMS7003;12220;50.194;18.948;2024-02-21T08:47:59;22;18;10
24012;PMS7003;12220;50.194;18.948;2024-02-21T08:50:01;18;18;12
24012;PMS7003;12220;50.194;18.948;2024-02-21T08:52:06;20;17;12
24012;PMS7003;12220;50.194;18.948;2024-02-21T08:54:12;20;17;12
24012;PMS7003;12220;50.194;18.948;2024-02-21T08:56:14;24;22;13
24012;PMS7003;12220;50.194;18.948;2024-02-21T08:58:16;27;20;12
24012;PMS7003;12220;50.194;18.948;2024-02-21T09:00:17;17;17;11
24012;PMS7003;12220;50.194;18.948;2024-02-21T09:02:27;13;12;9
24012;PMS7003;12220;50.194;18.948;2024-02-21T09:04:29;15;15;11
24012;PMS7003;12220;50.194;18.948;2024-02-21T09:06:31;30;25;16
24012;PMS7003;12220;50.194;18.948;2024-02-21T09:08:36;25;22;13
24012;PMS7003;12220;50.194;18.948;2024-02-21T09:10:42;21;21;14
24012;PMS7003;12220;50.194;18.948;2024-02-21T09:12:44;19;18;12
24012;PMS7003;12220;50.194;18.948;2024-02-21T09:14:45;22;19;10
24012;PMS7003;12220;50.194;18.948;2024-02-21T09:16:51;22;18;11
24012;PMS7003;12220;50.194;18.948;2024-02-21T09:18:58;16;11;10
24012;PMS7003;12220;50.194;18.948;2024-02-21T09:20:59;12;11;9
24012;PMS7003;12220;50.194;18.948;2024-02-21T09:23:03;14;13;8
24012;PMS7003;12220;50.194;18.948;2024-02-21T09:25:05;16;11;8
24012;PMS7003;12220;50.194;18.948;2024-02-21T09:27:12;19;17;10
24012;PMS7003;12220;50.194;18.948;2024-02-21T09:29:14;22;18;11
24012;PMS7003;12220;50.194;18.948;2024-02-21T09:31:17;15;15;10
24012;PMS7003;12220;50.194;18.948;2024-02-21T09:33:18;16;15;11
24012;PMS7003;12220;50.194;18.948;2024-02-21T09:35:28;15;15;10
24012;PMS7003;12220;50.194;18.948;2024-02-21T09:37:29;19;17;11
24012;PMS7003;12220;50.194;18.948;2024-02-21T09:39:30;20;18;11
24012;PMS7003;12220;50.194;18.948;2024-02-21T09:41:32;20;17;10
24012;PMS7003;12220;50.194;18.948;2024-02-21T09:43:43;11;10;9
24012;PMS7003;12220;50.194;18.948;2024-02-21T09:45:46;14;14;11
24012;PMS7003;12220;50.194;18.948;2024-02-21T09:50:03;19;10;8
24012;PMS7003;12220;50.194;18.948;2024-02-21T09:52:06;16;14;10
24012;PMS7003;12220;50.194;18.948;2024-02-21T09:54:19;15;15;11
24012;PMS7003;12220;50.194;18.948;2024-02-21T09:56:21;15;13;9
24012;PMS7003;12220;50.194;18.948;2024-02-21T09:58:23;18;17;10
24012;PMS7003;12220;50.194;18.948;2024-02-21T10:00:28;15;12;8
24012;PMS7003;12220;50.194;18.948;2024-02-21T10:02:34;17;17;12
24012;PMS7003;12220;50.194;18.948;2024-02-21T10:04:36;15;14;11
24012;PMS7003;12220;50.194;18.948;2024-02-21T10:06:37;15;13;10
24012;PMS7003;12220;50.194;18.948;2024-02-21T10:08:39;12;12;9
24012;PMS7003;12220;50.194;18.948;2024-02-21T10:10:49;12;11;7
24012;PMS7003;12220;50.194;18.948;2024-02-21T10:12:53;20;14;10
24012;PMS7003;12220;50.194;18.948;2024-02-21T10:17:07;13;11;9
24012;PMS7003;12220;50.194;18.948;2024-02-21T10:21:25;10;10;7
24012;PMS7003;12220;50.194;18.948;2024-02-21T10:23:27;18;14;10
24012;PMS7003;12220;50.194;18.948;2024-02-21T10:25:28;13;13;8
24012;PMS7003;12220;50.194;18.948;2024-02-21T10:27:31;13;13;10
24012;PMS7003;12220;50.194;18.948;2024-02-21T10:29:40;5;5;4
24012;PMS7003;12220;50.194;18.948;2024-02-21T10:31:42;11;11;7
24012;PMS7003;12220;50.194;18.948;2024-02-21T10:33:43;12;12;9
24012;PMS7003;12220;50.194;18.948;2024-02-21T10:35:45;13;9;8
24012;PMS7003;12220;50.194;18.948;2024-02-21T10:37:56;11;10;6
24012;PMS7003;12220;50.194;18.948;2024-02-21T10:39:57;12;10;7
24012;PMS7003;12220;50.194;18.948;2024-02-21T10:42:00;19;13;9
24012;PMS7003;12220;50.194;18.948;2024-02-21T10:44:05;16;13;11
24012;PMS7003;12220;50.194;18.948;2024-02-21T10:46:10;11;8;6
24012;PMS7003;12220;50.194;18.948;2024-02-21T10:48:13;16;11;8
24012;PMS7003;12220;50.194;18.948;2024-02-21T10:50:15;11;11;9
24012;PMS7003;12220;50.194;18.948;2024-02-21T10:56:50;11;9;7
24012;PMS7003;12220;50.194;18.948;2024-02-21T10:58:52;8;8;6
24012;PMS7003;12220;50.194;18.948;2024-02-21T11:00:55;10;6;5
24012;PMS7003;12220;50.194;18.948;2024-02-21T11:02:57;11;11;7
24012;PMS7003;12220;50.194;18.948;2024-02-21T11:05:01;6;6;5
24012;PMS7003;12220;50.194;18.948;2024-02-21T11:07:05;12;9;7
24012;PMS7003;12220;50.194;18.948;2024-02-21T11:09:08;8;8;7
24012;PMS7003;12220;50.194;18.948;2024-02-21T11:11:12;14;10;7
24012;PMS7003;12220;50.194;18.948;2024-02-21T11:13:29;11;11;7
24012;PMS7003;12220;50.194;18.948;2024-02-21T11:15:38;8;6;5
24012;PMS7003;12220;50.194;18.948;2024-02-21T11:17:39;13;10;8
24012;PMS7003;12220;50.194;18.948;2024-02-21T11:19:41;9;9;7
24012;PMS7003;12220;50.194;18.948;2024-02-21T11:21:42;9;9;7
24012;PMS7003;12220;50.194;18.948;2024-02-21T11:23:56;8;8;6
24012;PMS7003;12220;50.194;18.948;2024-02-21T11:28:11;7;7;5
24012;PMS7003;12220;50.194;18.948;2024-02-21T11:30:12;8;7;6
24012;PMS7003;12220;50.194;18.948;2024-02-21T11:32:17;18;11;7
24012;PMS7003;12220;50.194;18.948;2024-02-21T11:34:20;9;9;6
24012;PMS7003;12220;50.194;18.948;2024-02-21T11:36:25;11;11;8
24012;PMS7003;12220;50.194;18.948;2024-02-21T11:38:27;11;10;7
24012;PMS7003;12220;50.194;18.948;2024-02-21T11:40:30;7;7;6
24012;PMS7003;12220;50.194;18.948;2024-02-21T11:42:32;13;9;7
24012;PMS7003;12220;50.194;18.948;2024-02-21T11:44:36;11;9;6
24012;PMS7003;12220;50.194;18.948;2024-02-21T11:46:43;11;11;8
24012;PMS7003;12220;50.194;18.948;2024-02-21T11:48:45;18;12;8
24012;PMS7003;12220;50.194;18.948;2024-02-21T11:50:54;7;6;5
24012;PMS7003;12220;50.194;18.948;2024-02-21T11:52:57;8;8;7
24012;PMS7003;12220;50.194;18.948;2024-02-21T11:54:59;10;9;8
24012;PMS7003;12220;50.194;18.948;2024-02-21T11:57:05;13;9;6
24012;PMS7003;12220;50.194;18.948;2024-02-21T11:59:06;10;10;6
24012;PMS7003;12220;50.194;18.948;2024-02-21T12:01:07;8;6;5
24012;PMS7003;12220;50.194;18.948;2024-02-21T12:03:09;11;11;9
24012;PMS7003;12220;50.194;18.948;2024-02-21T12:05:16;12;12;8
24012;PMS7003;12220;50.194;18.948;2024-02-21T12:07:19;11;9;7
24012;PMS7003;12220;50.194;18.948;2024-02-21T12:09:25;12;12;9
24012;PMS7003;12220;50.194;18.948;2024-02-21T12:11:27;11;8;6
24012;PMS7003;12220;50.194;18.948;2024-02-21T12:13:31;12;9;7
24012;PMS7003;12220;50.194;18.948;2024-02-21T12:15:32;11;10;7
24012;PMS7003;12220;50.194;18.948;2024-02-21T12:17:34;10;10;7
24012;PMS7003;12220;50.194;18.948;2024-02-21T12:19:36;15;14;9
24012;PMS7003;12220;50.194;18.948;2024-02-21T12:21:47;12;10;6
24012;PMS7003;12220;50.194;18.948;2024-02-21T12:23:50;19;12;10
24012;PMS7003;12220;50.194;18.948;2024-02-21T12:25:52;13;10;7
24012;PMS7003;12220;50.194;18.948;2024-02-21T12:27:56;17;14;10
24012;PMS7003;12220;50.194;18.948;2024-02-21T12:30:01;9;9;7
24012;PMS7003;12220;50.194;18.948;2024-02-21T12:32:03;10;9;8
24012;PMS7003;12220;50.194;18.948;2024-02-21T12:34:05;10;9;7
24012;PMS7003;12220;50.194;18.948;2024-02-21T12:36:06;10;9;6
24012;PMS7003;12220;50.194;18.948;2024-02-21T12:38:16;10;9;7
24012;PMS7003;12220;50.194;18.948;2024-02-21T12:40:21;15;11;8
24012;PMS7003;12220;50.194;18.948;2024-02-21T12:42:22;13;10;8
24012;PMS7003;12220;50.194;18.948;2024-02-21T12:44:26;11;11;8
24012;PMS7003;12220;50.194;18.948;2024-02-21T12:46:31;5;5;4
24012;PMS7003;12220;50.194;18.948;2024-02-21T12:48:33;11;9;6
24012;PMS7003;12220;50.194;18.948;2024-02-21T12:50:34;10;10;8
24012;PMS7003;12220;50.194;18.948;2024-02-21T12:52:36;9;8;7
24012;PMS7003;12220;50.194;18.948;2024-02-21T12:54:46;7;6;4
24012;PMS7003;12220;50.194;18.948;2024-02-21T12:56:48;12;7;6
24012;PMS7003;12220;50.194;18.948;2024-02-21T12:58:50;9;9;7
24012;PMS7003;12220;50.194;18.948;2024-02-21T13:00:51;13;9;8
24012;PMS7003;12220;50.194;18.948;2024-02-21T13:03:00;11;10;8
24012;PMS7003;12220;50.194;18.948;2024-02-21T13:05:03;11;10;7
24012;PMS7003;12220;50.194;18.948;2024-02-21T13:07:06;13;10;8
24012;PMS7003;12220;50.194;18.948;2024-02-21T13:09:08;11;9;7
24012;PMS7003;12220;50.194;18.948;2024-02-21T13:11:15;12;11;8
24012;PMS7003;12220;50.194;18.948;2024-02-21T13:13:17;13;10;6
24012;PMS7003;12220;50.194;18.948;2024-02-21T13:15:24;14;14;7
24012;PMS7003;12220;50.194;18.948;2024-02-21T13:17:25;13;13;8
24012;PMS7003;12220;50.194;18.948;2024-02-21T13:19:32;11;10;8
24012;PMS7003;12220;50.194;18.948;2024-02-21T13:21:36;19;13;10
24012;PMS7003;12220;50.194;18.948;2024-02-21T13:23:37;18;11;8
24012;PMS7003;12220;50.194;18.948;2024-02-21T13:25:39;16;12;10
24012;PMS7003;12220;50.194;18.948;2024-02-21T13:27:45;12;11;8
24012;PMS7003;12220;50.194;18.948;2024-02-21T13:29:48;12;12;10
24012;PMS7003;12220;50.194;18.948;2024-02-21T13:31:49;15;13;10
24012;PMS7003;12220;50.194;18.948;2024-02-21T13:33:50;18;14;11